CheckWX is a tool to help pilots better visualize weather data.  It is not intended as a substitute for an official pre-flight weather briefing.

01:06:46 UTC

KAEX TAF
Alexandria International Airport
Alexandria, Louisiana, USA
KAEX 232326Z 2400/2424 26010KT P6SM BKN250 FM240100 VRB06KT P6SM BKN250 FM240300 32006KT P6SM BKN250 FM240900 32008KT P6SM SKC FM241500 35011KT P6SM SKC

Feb-24@
00:00 UTC

Feb-24 @ 00:00 UTC

Feb-24@
01:00 UTC

Feb-24 @ 01:00 UTC

KAEX 232326Z 2400/2424 26010KT P6SM BKN250

Expired

Wind
  • 260° at 10 KTS
Cloud Levels
  • Broken at 25,000' AGL

Feb-24@
01:00 UTC

Feb-24 @ 01:00 UTC

Feb-24@
03:00 UTC

Feb-24 @ 03:00 UTC

FM240100 VRB06KT P6SM BKN250

From

From Standard forecast or significant change

Wind
  • Variable at 6 KTS
Cloud Levels
  • Broken at 25,000' AGL

Feb-24@
03:00 UTC

Feb-24 @ 03:00 UTC

Feb-24@
09:00 UTC

Feb-24 @ 09:00 UTC

FM240300 32006KT P6SM BKN250

From

From Standard forecast or significant change

Wind
  • 320° at 6 KTS
Cloud Levels
  • Broken at 25,000' AGL

Feb-24@
09:00 UTC

Feb-24 @ 09:00 UTC

Feb-24@
15:00 UTC

Feb-24 @ 15:00 UTC

FM240900 32008KT P6SM SKC

From

From Standard forecast or significant change

Wind
  • 320° at 8 KTS
Cloud Levels
  • Clear skies

Feb-24@
15:00 UTC

Feb-24 @ 15:00 UTC

Feb-25@
00:00 UTC

Feb-25 @ 00:00 UTC

FM241500 35011KT P6SM SKC

From

From Standard forecast or significant change

Wind
  • 350° at 11 KTS
Cloud Levels
  • Clear skies